createdAt,value
2022-08-19T04:30:57.190Z,12.00
2022-08-19T04:31:57.163Z,16.00
2022-08-19T04:32:57.131Z,16.00
2022-08-19T04:33:57.140Z,12.00
2022-08-19T04:35:02.625Z,16.00
2022-08-19T04:35:58.105Z,16.00
2022-08-19T04:36:57.146Z,20.00
2022-08-19T04:37:57.100Z,20.00
2022-08-19T04:38:57.072Z,20.00
2022-08-19T04:39:58.683Z,24.00
2022-08-19T04:40:57.052Z,24.00
2022-08-19T04:41:57.034Z,28.00
2022-08-19T04:42:57.050Z,32.00
2022-08-19T04:43:59.204Z,28.00
2022-08-19T04:44:58.001Z,32.00
2022-08-19T04:46:00.805Z,32.00
2022-08-19T04:46:57.001Z,40.00
2022-08-19T04:47:58.375Z,40.00
2022-08-19T04:48:57.966Z,40.00
2022-08-19T04:49:56.948Z,40.00
2022-08-19T04:50:56.956Z,44.00
2022-08-19T04:51:56.925Z,48.00
2022-08-19T04:52:56.917Z,48.00
2022-08-19T04:53:56.900Z,48.00
2022-08-19T04:54:56.915Z,52.00
2022-08-19T04:55:56.902Z,52.00
2022-08-19T04:56:56.878Z,56.00
2022-08-19T04:57:56.859Z,56.00
2022-08-19T04:58:56.849Z,60.00
2022-08-19T04:59:56.861Z,60.00
2022-08-19T05:00:56.870Z,60.00
2022-08-19T05:01:56.813Z,60.00
2022-08-19T05:02:56.808Z,64.00
2022-08-19T05:03:56.799Z,68.00
2022-08-19T05:04:56.804Z,72.00
2022-08-19T05:05:56.803Z,76.00
2022-08-19T05:07:00.751Z,84.00
2022-08-19T05:07:56.750Z,88.00
2022-08-19T05:08:56.750Z,92.00
2022-08-19T05:09:58.765Z,96.00
2022-08-19T05:10:56.722Z,100.00
2022-08-19T05:11:56.705Z,108.00
2022-08-19T05:12:56.695Z,116.00
2022-08-19T05:13:56.687Z,116.00
2022-08-19T05:14:56.697Z,120.00
2022-08-19T05:15:56.670Z,124.00
2022-08-19T05:17:23.793Z,128.00
2022-08-19T05:17:57.663Z,132.00
2022-08-19T05:18:56.625Z,140.00
2022-08-19T05:19:56.627Z,144.00
2022-08-19T05:20:56.613Z,144.00
2022-08-19T05:21:56.617Z,148.00
2022-08-19T05:22:56.653Z,148.00
2022-08-19T05:23:56.572Z,144.00
2022-08-19T05:25:11.797Z,144.00
2022-08-19T05:25:57.557Z,148.00
2022-08-19T05:26:56.562Z,148.00
2022-08-19T05:27:56.557Z,144.00
2022-08-19T05:28:56.517Z,148.00
2022-08-19T05:29:56.508Z,152.00
2022-08-19T05:30:56.512Z,160.00
2022-08-19T05:31:56.495Z,164.00
2022-08-19T05:32:56.479Z,168.00
2022-08-19T05:33:56.500Z,168.00
2022-08-19T05:34:56.457Z,168.00
2022-08-19T05:35:56.459Z,168.00
2022-08-19T05:36:56.427Z,168.00
2022-08-19T05:37:58.937Z,176.00
2022-08-19T05:38:56.412Z,184.00
2022-08-19T05:39:56.455Z,196.00
2022-08-19T05:40:56.389Z,208.00
2022-08-19T05:41:56.373Z,220.00
2022-08-19T05:42:56.369Z,232.00
2022-08-19T05:43:56.368Z,240.00
2022-08-19T05:44:56.360Z,252.00
2022-08-19T05:45:56.330Z,260.00
2022-08-19T05:46:56.318Z,264.00
2022-08-19T05:47:56.300Z,268.00
2022-08-19T05:48:56.316Z,264.00
2022-08-19T05:49:56.305Z,256.00
2022-08-19T05:50:56.271Z,244.00
2022-08-19T05:51:56.287Z,232.00
2022-08-19T05:52:56.367Z,220.00
2022-08-19T05:53:56.249Z,208.00
2022-08-19T05:54:56.568Z,196.00
2022-08-19T05:55:56.223Z,196.00
2022-08-19T05:56:56.217Z,196.00
2022-08-19T05:57:56.200Z,200.00
2022-08-19T05:58:56.193Z,204.00
2022-08-19T05:59:58.391Z,204.00
2022-08-19T06:00:56.164Z,212.00
2022-08-19T06:01:56.198Z,220.00
2022-08-19T06:02:56.411Z,216.00
2022-08-19T06:03:56.190Z,204.00
2022-08-19T06:04:56.153Z,200.00
2022-08-19T06:05:56.109Z,204.00
2022-08-19T06:06:56.098Z,196.00
2022-08-19T06:07:56.091Z,180.00
2022-08-19T06:08:56.077Z,172.00
2022-08-19T06:09:59.968Z,160.00
2022-08-19T06:10:57.054Z,160.00
2022-08-19T06:11:56.273Z,160.00
2022-08-19T06:12:56.055Z,152.00
2022-08-19T06:13:59.509Z,148.00
2022-08-19T06:15:01.558Z,144.00
2022-08-19T06:15:55.995Z,148.00
2022-08-19T06:16:56.005Z,148.00
2022-08-19T06:17:56.005Z,160.00
2022-08-19T06:18:55.968Z,172.00
2022-08-19T06:19:55.987Z,184.00
2022-08-19T06:20:56.356Z,192.00
2022-08-19T06:21:55.934Z,212.00
2022-08-19T06:22:55.955Z,220.00
2022-08-19T06:23:55.923Z,224.00
2022-08-19T06:24:55.907Z,204.00
2022-08-19T06:25:55.897Z,196.00
2022-08-19T06:26:59.201Z,192.00
2022-08-19T06:28:14.707Z,188.00
2022-08-19T06:28:56.876Z,208.00
2022-08-19T06:29:55.863Z,224.00
2022-08-19T06:30:55.839Z,236.00
2022-08-19T06:31:55.827Z,252.00
2022-08-19T06:32:55.838Z,256.00
2022-08-19T06:33:55.816Z,268.00
2022-08-19T06:34:55.797Z,240.00
2022-08-19T06:35:55.785Z,244.00
2022-08-19T06:36:55.767Z,280.00
2022-08-19T06:37:55.980Z,276.00
2022-08-19T06:38:55.751Z,256.00
2022-08-19T06:39:55.813Z,252.00
2022-08-19T06:40:55.725Z,236.00
2022-08-19T06:41:58.654Z,248.00
2022-08-19T06:42:55.762Z,256.00
2022-08-19T06:43:55.772Z,280.00
2022-08-19T06:44:55.729Z,328.00
2022-08-19T06:45:55.678Z,368.00
2022-08-19T06:46:55.660Z,392.00
2022-08-19T06:47:55.666Z,380.00
2022-08-19T06:48:55.639Z,400.00
2022-08-19T06:49:55.629Z,460.00
2022-08-19T06:50:56.638Z,572.00
2022-08-19T06:51:55.615Z,704.00
2022-08-19T06:52:55.851Z,636.00
2022-08-19T06:53:55.920Z,704.00
2022-08-19T06:54:56.847Z,980.00
2022-08-19T06:55:55.570Z,940.00
2022-08-19T06:56:55.556Z,804.00
2022-08-19T06:57:55.565Z,1072.00
2022-08-19T06:58:55.556Z,1056.00
2022-08-19T06:59:55.544Z,1064.00
2022-08-19T07:00:55.518Z,972.00
2022-08-19T07:01:55.497Z,920.00
2022-08-19T07:03:00.120Z,916.00
2022-08-19T07:03:57.524Z,948.00
2022-08-19T07:04:55.481Z,924.00
2022-08-19T07:05:55.487Z,1032.00
2022-08-19T07:06:55.545Z,1088.00
2022-08-19T07:07:57.472Z,1004.00
2022-08-19T07:08:55.450Z,1140.00
2022-08-19T07:09:59.902Z,1296.00
2022-08-19T07:10:56.429Z,1332.00
2022-08-19T07:11:55.417Z,1220.00
2022-08-19T07:12:55.596Z,1340.00
2022-08-19T07:13:55.403Z,1264.00
2022-08-19T07:14:55.357Z,1312.00
2022-08-19T07:15:55.356Z,1312.00
2022-08-19T07:16:55.351Z,1340.00
2022-08-19T07:17:55.319Z,1320.00
2022-08-19T07:18:55.311Z,1372.00
2022-08-19T07:19:55.305Z,1388.00
2022-08-19T07:20:55.301Z,1392.00
2022-08-19T07:21:55.294Z,1432.00
2022-08-19T07:22:55.644Z,1388.00
2022-08-19T07:23:55.263Z,1268.00
2022-08-19T07:24:55.249Z,1076.00
2022-08-19T07:25:55.298Z,1332.00
2022-08-19T07:26:55.231Z,1400.00
2022-08-19T07:27:55.702Z,1440.00
2022-08-19T07:28:55.209Z,1444.00
2022-08-19T07:29:55.936Z,1400.00
2022-08-19T07:30:55.454Z,1364.00
2022-08-19T07:31:55.182Z,1456.00
2022-08-19T07:32:55.160Z,1396.00
2022-08-19T07:33:55.156Z,1456.00
2022-08-19T07:34:55.147Z,1536.00
2022-08-19T07:35:55.129Z,1564.00
2022-08-19T07:36:55.132Z,1556.00
2022-08-19T07:37:55.341Z,1508.00
2022-08-19T07:38:55.097Z,1496.00
2022-08-19T07:39:55.120Z,1032.00
2022-08-19T07:40:55.090Z,1028.00
2022-08-19T07:41:55.060Z,1492.00
2022-08-19T07:42:55.072Z,1472.00
2022-08-19T07:43:55.054Z,1504.00
2022-08-19T07:44:55.058Z,1464.00
2022-08-19T07:45:55.155Z,1556.00
2022-08-19T07:46:55.005Z,1548.00
2022-08-19T07:47:55.013Z,1480.00
2022-08-19T07:48:54.990Z,1220.00
2022-08-19T07:49:54.994Z,1648.00
2022-08-19T07:50:54.970Z,1744.00
2022-08-19T07:51:54.956Z,1684.00
2022-08-19T07:52:54.943Z,1676.00
2022-08-19T07:53:54.952Z,1796.00
2022-08-19T07:54:54.941Z,1860.00
2022-08-19T07:55:54.927Z,1832.00
2022-08-19T07:56:54.912Z,1832.00
2022-08-19T07:57:54.897Z,1904.00
2022-08-19T07:59:54.863Z,1940.00
2022-08-19T08:00:54.908Z,1904.00
2022-08-19T08:01:54.993Z,1932.00
2022-08-19T08:02:55.372Z,1828.00
2022-08-19T08:03:54.853Z,1856.00
2022-08-19T08:04:54.839Z,1972.00
2022-08-19T08:05:54.822Z,2204.00
2022-08-19T08:06:54.792Z,2072.00
2022-08-19T08:07:54.793Z,1708.00
2022-08-19T08:08:54.767Z,2020.00
2022-08-19T08:10:57.033Z,2028.00
2022-08-19T08:11:55.310Z,2120.00
2022-08-19T08:13:10.210Z,1220.00
2022-08-19T08:14:00.822Z,1916.00
2022-08-19T08:14:55.975Z,1152.00
2022-08-19T08:15:54.803Z,1004.00
2022-08-19T08:16:54.701Z,1968.00
2022-08-19T08:17:54.680Z,1872.00
2022-08-19T08:18:54.657Z,1896.00
2022-08-19T08:19:54.661Z,2100.00
2022-08-19T08:20:54.637Z,1760.00
2022-08-19T08:21:54.652Z,1376.00
2022-08-19T08:22:54.749Z,2508.00
2022-08-19T08:23:56.254Z,2440.00
2022-08-19T08:24:54.592Z,2196.00
2022-08-19T08:25:54.600Z,2300.00
2022-08-19T08:26:57.082Z,2368.00
2022-08-19T08:27:55.323Z,2452.00
2022-08-19T08:28:54.553Z,2052.00
2022-08-19T08:29:54.539Z,1784.00
2022-08-19T08:30:54.544Z,2460.00
2022-08-19T08:31:59.691Z,2424.00
2022-08-19T08:32:55.511Z,1760.00
2022-08-19T08:33:54.562Z,1292.00
2022-08-19T08:34:54.507Z,1316.00
2022-08-19T08:35:54.482Z,2444.00
2022-08-19T08:36:54.466Z,2372.00
2022-08-19T08:37:54.726Z,2304.00
2022-08-19T08:39:54.466Z,2072.00
2022-08-19T08:40:54.433Z,2128.00
2022-08-19T08:41:54.418Z,2156.00
2022-08-19T08:42:54.692Z,2268.00
2022-08-19T08:43:54.408Z,2288.00
2022-08-19T08:45:54.373Z,2316.00
2022-08-19T08:46:54.355Z,2328.00
2022-08-19T08:47:54.503Z,1216.00
2022-08-19T08:48:54.357Z,1064.00
2022-08-19T08:49:54.325Z,1008.00
2022-08-19T08:50:54.336Z,1004.00
2022-08-19T08:51:59.754Z,1020.00
2022-08-19T08:52:54.502Z,992.00
2022-08-19T08:53:56.141Z,952.00
2022-08-19T08:54:55.732Z,864.00
2022-08-19T08:55:54.271Z,788.00
2022-08-19T08:56:54.244Z,772.00
2022-08-19T08:57:54.439Z,792.00
2022-08-19T08:58:54.882Z,832.00
2022-08-19T08:59:54.240Z,840.00
2022-08-19T09:00:54.206Z,1104.00
2022-08-19T09:01:54.252Z,1208.00
2022-08-19T09:02:54.179Z,1236.00
2022-08-19T09:03:54.160Z,2132.00
2022-08-19T09:04:54.172Z,2292.00
2022-08-19T09:05:54.148Z,1852.00
2022-08-19T09:06:54.152Z,2428.00
2022-08-19T09:07:54.129Z,2092.00
2022-08-19T09:08:56.941Z,1420.00
2022-08-19T09:09:54.099Z,1176.00
2022-08-19T09:10:55.002Z,1140.00
2022-08-19T09:11:54.100Z,1208.00
2022-08-19T09:12:54.074Z,1364.00
2022-08-19T09:13:54.067Z,1192.00
2022-08-19T09:14:54.055Z,1672.00
2022-08-19T09:15:54.057Z,1712.00
2022-08-19T09:16:54.026Z,1288.00
2022-08-19T09:17:54.164Z,1336.00
2022-08-19T09:18:54.016Z,1056.00
2022-08-19T09:19:54.008Z,2368.00
2022-08-19T09:20:53.982Z,2420.00
2022-08-19T09:21:53.967Z,2476.00
2022-08-19T09:22:53.978Z,2416.00
2022-08-19T09:23:53.987Z,2400.00
2022-08-19T09:24:53.941Z,2224.00
2022-08-19T09:25:53.923Z,1068.00
2022-08-19T09:26:53.964Z,1008.00
2022-08-19T09:27:54.039Z,1072.00
2022-08-19T09:28:53.894Z,2044.00
2022-08-19T09:29:53.902Z,2244.00
2022-08-19T09:30:53.876Z,2432.00
2022-08-19T09:31:53.865Z,1600.00
2022-08-19T09:32:53.901Z,2196.00
2022-08-19T09:33:55.307Z,2424.00
2022-08-19T09:34:53.847Z,2540.00
2022-08-19T09:35:54.000Z,2432.00
2022-08-19T09:36:53.832Z,1144.00
2022-08-19T09:37:57.624Z,1144.00
2022-08-19T09:38:54.802Z,1292.00
2022-08-19T09:39:53.807Z,956.00
2022-08-19T09:40:53.770Z,2344.00
2022-08-19T09:41:53.756Z,2560.00
2022-08-19T09:42:53.740Z,2316.00
2022-08-19T09:43:53.752Z,864.00
2022-08-19T09:44:53.762Z,792.00
2022-08-19T09:45:53.774Z,768.00
2022-08-19T09:46:53.703Z,828.00
2022-08-19T09:47:54.635Z,912.00
2022-08-19T09:48:53.699Z,2144.00
2022-08-19T09:49:53.687Z,1504.00
2022-08-19T09:50:53.667Z,2332.00
2022-08-19T09:51:53.661Z,2476.00
2022-08-19T09:52:57.168Z,860.00
2022-08-19T09:53:53.640Z,700.00
2022-08-19T09:54:53.634Z,636.00
2022-08-19T09:55:53.607Z,624.00
2022-08-19T09:56:53.622Z,716.00
2022-08-19T09:57:53.698Z,836.00
2022-08-19T09:58:53.596Z,844.00
2022-08-19T09:59:53.567Z,920.00
2022-08-19T10:00:53.627Z,1052.00
2022-08-19T10:01:53.562Z,2296.00
2022-08-19T10:02:53.564Z,1836.00
2022-08-19T10:03:53.538Z,880.00
2022-08-19T10:04:53.518Z,768.00
2022-08-19T10:05:55.079Z,796.00
2022-08-19T10:06:55.351Z,660.00
2022-08-19T10:07:53.613Z,764.00
2022-08-19T10:08:53.470Z,2368.00
2022-08-19T10:09:53.476Z,2168.00
2022-08-19T10:10:53.449Z,2388.00
2022-08-19T10:11:54.851Z,2544.00
2022-08-19T10:12:53.438Z,2480.00
2022-08-19T10:13:53.423Z,2300.00
2022-08-19T10:14:53.421Z,1068.00
2022-08-19T10:15:53.405Z,2016.00
2022-08-19T10:16:53.398Z,2524.00
2022-08-19T10:17:55.187Z,2360.00
2022-08-19T10:18:53.367Z,2256.00
2022-08-19T10:19:55.932Z,988.00
2022-08-19T10:20:53.345Z,2412.00
2022-08-19T10:21:53.353Z,1760.00
2022-08-19T10:22:53.502Z,2580.00
2022-08-19T10:23:53.311Z,1540.00
2022-08-19T10:24:53.303Z,1016.00
2022-08-19T10:25:53.296Z,1012.00
2022-08-19T10:26:55.848Z,856.00
2022-08-19T10:27:54.421Z,908.00
2022-08-19T10:28:53.259Z,2016.00
2022-08-19T10:29:53.262Z,1024.00
2022-08-19T10:30:53.234Z,1192.00
2022-08-19T10:32:00.878Z,2572.00
2022-08-19T10:32:54.214Z,2056.00
2022-08-19T10:33:54.085Z,1332.00
2022-08-19T10:34:57.281Z,884.00
2022-08-19T10:35:56.799Z,796.00
2022-08-19T10:36:56.138Z,744.00
2022-08-19T10:37:57.277Z,680.00
2022-08-19T10:38:56.701Z,636.00
2022-08-19T10:39:53.217Z,636.00
2022-08-19T10:40:53.133Z,668.00
2022-08-19T10:41:53.121Z,716.00
2022-08-19T10:42:53.159Z,1092.00
2022-08-19T10:43:53.107Z,872.00
2022-08-19T10:44:53.124Z,852.00
2022-08-19T10:45:53.075Z,1348.00
2022-08-19T10:46:53.063Z,2524.00
2022-08-19T10:47:53.122Z,2660.00
2022-08-19T10:48:53.043Z,2572.00
2022-08-19T10:49:53.033Z,2544.00
2022-08-19T10:50:53.038Z,2632.00
2022-08-19T10:51:53.057Z,2700.00
2022-08-19T10:52:53.014Z,2640.00
2022-08-19T10:53:52.983Z,2352.00
2022-08-19T10:54:53.005Z,944.00
2022-08-19T10:55:53.950Z,952.00
2022-08-19T10:56:52.971Z,2080.00
2022-08-19T10:58:02.170Z,2416.00
2022-08-19T10:58:53.943Z,1008.00
2022-08-19T10:59:53.814Z,916.00
2022-08-19T11:00:52.950Z,824.00
2022-08-19T11:01:52.927Z,820.00
2022-08-19T11:02:53.798Z,920.00
2022-08-19T11:03:53.814Z,2420.00
2022-08-19T11:04:52.873Z,2352.00
2022-08-19T11:05:52.858Z,940.00
2022-08-19T11:06:52.878Z,1184.00
2022-08-19T11:07:53.229Z,972.00
2022-08-19T11:08:52.839Z,936.00
2022-08-19T11:09:52.879Z,892.00
2022-08-19T11:10:52.809Z,1576.00
2022-08-19T11:11:52.789Z,1336.00
2022-08-19T11:12:52.777Z,1052.00
2022-08-19T11:13:52.822Z,2336.00
2022-08-19T11:14:52.762Z,1012.00
2022-08-19T11:15:53.475Z,1156.00
2022-08-19T11:16:52.738Z,2732.00
2022-08-19T11:17:53.009Z,2624.00
2022-08-19T11:18:52.728Z,2652.00
2022-08-19T11:19:52.792Z,2584.00
2022-08-19T11:20:52.850Z,2624.00
2022-08-19T11:21:52.752Z,2616.00
2022-08-19T11:22:52.681Z,2608.00
2022-08-19T11:23:52.686Z,2436.00
2022-08-19T11:24:52.656Z,2120.00
2022-08-19T11:25:52.667Z,2468.00
2022-08-19T11:26:52.651Z,2500.00
2022-08-19T11:27:52.850Z,2804.00
2022-08-19T11:28:52.620Z,2712.00
2022-08-19T11:29:52.636Z,2552.00
2022-08-19T11:30:52.605Z,2504.00
2022-08-19T11:31:52.576Z,2428.00
2022-08-19T11:32:52.583Z,2376.00
2022-08-19T11:33:52.557Z,2404.00
2022-08-19T11:34:52.590Z,2356.00
2022-08-19T11:35:52.553Z,2376.00
2022-08-19T11:36:52.547Z,2324.00
2022-08-19T11:37:52.626Z,2420.00
2022-08-19T11:38:52.507Z,2456.00
2022-08-19T11:39:53.919Z,2520.00
2022-08-19T11:40:52.486Z,2504.00
2022-08-19T11:41:52.476Z,2216.00
2022-08-19T11:42:52.482Z,2404.00
2022-08-19T11:43:52.441Z,908.00
2022-08-19T11:44:52.436Z,832.00
2022-08-19T11:45:52.427Z,744.00
2022-08-19T11:46:52.442Z,676.00
2022-08-19T11:47:52.477Z,660.00
2022-08-19T11:48:52.400Z,1860.00
2022-08-19T11:49:52.394Z,2188.00
2022-08-19T11:50:52.395Z,2256.00
2022-08-19T11:51:53.821Z,2276.00
2022-08-19T11:52:52.358Z,2344.00
2022-08-19T11:53:52.351Z,2384.00
2022-08-19T11:54:52.329Z,2440.00
2022-08-19T11:55:52.319Z,2360.00
2022-08-19T11:56:52.323Z,2444.00
2022-08-19T11:57:52.311Z,2092.00
2022-08-19T11:58:52.286Z,1400.00
2022-08-19T11:59:52.295Z,2284.00
2022-08-19T12:00:52.263Z,2308.00
2022-08-19T12:01:52.265Z,2296.00
2022-08-19T12:02:52.269Z,2196.00
2022-08-19T12:03:52.289Z,2224.00
2022-08-19T12:04:52.245Z,812.00
2022-08-19T12:05:52.203Z,812.00
2022-08-19T12:06:52.227Z,800.00
2022-08-19T12:07:52.189Z,872.00
2022-08-19T12:08:52.191Z,784.00
2022-08-19T12:09:52.174Z,696.00
2022-08-19T12:10:52.193Z,2088.00
2022-08-19T12:11:52.162Z,1964.00
2022-08-19T12:12:54.626Z,1924.00
2022-08-19T12:13:53.122Z,748.00
2022-08-19T12:14:52.153Z,932.00
2022-08-19T12:15:52.138Z,1844.00
2022-08-19T12:16:52.652Z,2068.00
2022-08-19T12:17:52.092Z,2088.00
2022-08-19T12:18:52.080Z,2036.00
2022-08-19T12:19:52.061Z,1948.00
2022-08-19T12:20:52.097Z,1104.00
2022-08-19T12:21:52.067Z,764.00
2022-08-19T12:22:52.041Z,1928.00
2022-08-19T12:23:55.656Z,944.00
2022-08-19T12:24:52.023Z,1916.00
2022-08-19T12:25:51.988Z,1956.00
2022-08-19T12:26:53.383Z,1868.00
2022-08-19T12:27:57.247Z,1940.00
2022-08-19T12:28:52.960Z,1820.00
2022-08-19T12:29:51.965Z,1936.00
2022-08-19T12:30:51.985Z,1388.00
2022-08-19T12:31:51.918Z,1712.00
2022-08-19T12:32:51.914Z,1872.00
2022-08-19T12:33:51.897Z,1880.00
2022-08-19T12:34:51.931Z,1852.00
2022-08-19T12:35:51.883Z,1828.00
2022-08-19T12:36:51.874Z,1736.00
2022-08-19T12:37:53.610Z,1768.00
2022-08-19T12:38:52.871Z,1784.00
2022-08-19T12:39:51.965Z,1664.00
2022-08-19T12:40:51.843Z,1632.00
2022-08-19T12:41:54.837Z,1628.00
2022-08-19T12:42:51.821Z,1704.00
2022-08-19T12:43:51.803Z,1636.00
2022-08-19T12:44:51.791Z,1644.00
2022-08-19T12:45:51.768Z,1728.00
2022-08-19T12:46:53.768Z,1688.00
2022-08-19T12:47:55.265Z,1740.00
2022-08-19T12:48:55.333Z,1732.00
2022-08-19T12:49:55.130Z,1736.00
2022-08-19T12:50:51.723Z,1744.00
2022-08-19T12:51:51.737Z,1760.00
2022-08-19T12:52:51.699Z,1652.00
2022-08-19T12:53:51.709Z,672.00
2022-08-19T12:54:53.721Z,1568.00
2022-08-19T12:55:51.672Z,1596.00
2022-08-19T12:56:51.653Z,1520.00
2022-08-19T12:57:51.653Z,1548.00
2022-08-19T12:58:53.104Z,900.00
2022-08-19T12:59:51.639Z,600.00
2022-08-19T13:00:51.642Z,636.00
2022-08-19T13:01:51.610Z,668.00
2022-08-19T13:02:51.588Z,1416.00
2022-08-19T13:03:51.589Z,1420.00
2022-08-19T13:04:51.600Z,580.00
2022-08-19T13:05:51.578Z,548.00
2022-08-19T13:06:51.580Z,1440.00
2022-08-19T13:07:51.554Z,1472.00
2022-08-19T13:08:51.541Z,1340.00
2022-08-19T13:09:51.535Z,1408.00
2022-08-19T13:10:51.534Z,1488.00
2022-08-19T13:11:51.493Z,788.00
2022-08-19T13:12:51.486Z,952.00
2022-08-19T13:13:51.487Z,1368.00
2022-08-19T13:14:51.487Z,1280.00
2022-08-19T13:15:51.469Z,1284.00
2022-08-19T13:16:51.435Z,1308.00
2022-08-19T13:17:51.463Z,1236.00
2022-08-19T13:18:51.413Z,936.00
2022-08-19T13:19:51.409Z,1204.00
2022-08-19T13:20:52.798Z,1228.00
2022-08-19T13:21:51.385Z,1220.00
2022-08-19T13:22:52.393Z,1240.00
2022-08-19T13:23:51.372Z,1212.00
2022-08-19T13:24:51.392Z,1212.00
2022-08-19T13:25:51.341Z,1248.00
2022-08-19T13:26:51.338Z,1256.00
2022-08-19T13:27:51.319Z,1228.00
2022-08-19T13:28:51.347Z,1216.00
2022-08-19T13:29:51.302Z,1208.00
2022-08-19T13:30:51.295Z,1180.00
2022-08-19T13:31:51.274Z,1160.00
2022-08-19T13:32:51.266Z,1172.00
2022-08-19T13:33:51.266Z,1176.00
2022-08-19T13:34:51.291Z,1140.00
2022-08-19T13:35:51.244Z,1168.00
2022-08-19T13:36:51.229Z,1084.00
2022-08-19T13:37:52.921Z,1084.00
2022-08-19T13:38:51.226Z,1076.00
2022-08-19T13:39:51.265Z,1128.00
2022-08-19T13:40:51.230Z,1136.00
2022-08-19T13:41:51.185Z,1084.00
2022-08-19T13:42:51.199Z,1036.00
2022-08-19T13:43:51.186Z,984.00
2022-08-19T13:44:51.143Z,992.00
2022-08-19T13:45:51.169Z,1000.00
2022-08-19T13:46:51.133Z,988.00
2022-08-19T13:47:53.690Z,904.00
2022-08-19T13:48:52.145Z,924.00
2022-08-19T13:49:51.101Z,960.00
2022-08-19T13:50:51.085Z,936.00
2022-08-19T13:51:51.868Z,908.00
2022-08-19T13:52:51.088Z,964.00
2022-08-19T13:53:51.051Z,776.00
2022-08-19T13:54:51.043Z,712.00
2022-08-19T13:55:51.032Z,928.00
2022-08-19T13:56:51.033Z,956.00
2022-08-19T13:57:51.017Z,968.00
2022-08-19T13:58:51.018Z,940.00
2022-08-19T13:59:50.987Z,852.00
2022-08-19T14:00:51.045Z,916.00
2022-08-19T14:01:50.977Z,916.00
2022-08-19T14:02:50.961Z,920.00
2022-08-19T14:03:50.970Z,928.00
2022-08-19T14:04:50.946Z,944.00
2022-08-19T14:05:50.929Z,920.00
2022-08-19T14:06:50.921Z,944.00
2022-08-19T14:07:50.912Z,968.00
2022-08-19T14:08:50.911Z,944.00
2022-08-19T14:09:50.890Z,972.00
2022-08-19T14:10:50.905Z,976.00
2022-08-19T14:11:50.864Z,980.00
2022-08-19T14:12:50.854Z,952.00
2022-08-19T14:13:50.875Z,780.00
2022-08-19T14:14:50.842Z,936.00
2022-08-19T14:15:50.838Z,924.00
2022-08-19T14:16:50.875Z,560.00
2022-08-19T14:17:50.856Z,884.00
2022-08-19T14:18:50.795Z,472.00
2022-08-19T14:19:50.802Z,436.00
2022-08-19T14:20:50.815Z,408.00
2022-08-19T14:21:50.826Z,488.00
2022-08-19T14:22:50.758Z,716.00
2022-08-19T14:23:50.751Z,772.00
2022-08-19T14:24:50.737Z,796.00
2022-08-19T14:25:50.729Z,792.00
2022-08-19T14:26:50.808Z,780.00
2022-08-19T14:27:50.760Z,736.00
2022-08-19T14:28:50.687Z,356.00
2022-08-19T14:29:50.676Z,324.00
2022-08-19T14:30:50.690Z,308.00
2022-08-19T14:31:50.660Z,572.00
2022-08-19T14:32:50.666Z,328.00
2022-08-19T14:33:50.674Z,376.00
2022-08-19T14:34:50.620Z,512.00
2022-08-19T14:35:50.610Z,680.00
2022-08-19T14:36:50.615Z,692.00
2022-08-19T14:37:50.606Z,700.00
2022-08-19T14:38:50.590Z,640.00
2022-08-19T14:39:50.613Z,696.00
2022-08-19T14:40:50.561Z,672.00
2022-08-19T14:41:50.605Z,668.00
2022-08-19T14:42:50.538Z,496.00
2022-08-19T14:43:50.528Z,568.00
2022-08-19T14:44:50.530Z,628.00
2022-08-19T14:45:50.504Z,416.00
2022-08-19T14:46:50.506Z,372.00
2022-08-19T14:47:50.533Z,336.00
2022-08-19T14:48:50.745Z,328.00
2022-08-19T14:49:50.465Z,352.00
2022-08-19T14:50:50.464Z,376.00
2022-08-19T14:51:50.447Z,544.00
2022-08-19T14:52:50.449Z,592.00
2022-08-19T14:53:50.421Z,608.00
2022-08-19T14:54:50.415Z,612.00
2022-08-19T14:55:50.416Z,608.00
2022-08-19T14:56:50.397Z,604.00
2022-08-19T14:57:50.443Z,588.00
2022-08-19T14:58:50.401Z,580.00
2022-08-19T14:59:50.356Z,576.00
2022-08-19T15:00:50.339Z,572.00
2022-08-19T15:01:50.361Z,560.00
2022-08-19T15:02:50.415Z,524.00
2022-08-19T15:03:50.314Z,524.00
2022-08-19T15:04:58.127Z,520.00
2022-08-19T15:05:51.336Z,520.00
2022-08-19T15:06:50.401Z,524.00
2022-08-19T15:07:50.288Z,524.00
2022-08-19T15:08:50.255Z,512.00
2022-08-19T15:09:50.238Z,504.00
2022-08-19T15:10:50.244Z,516.00
2022-08-19T15:11:50.221Z,448.00
2022-08-19T15:12:51.850Z,460.00
2022-08-19T15:13:50.207Z,488.00
2022-08-19T15:14:50.216Z,364.00
2022-08-19T15:15:50.192Z,344.00
2022-08-19T15:16:50.198Z,312.00
2022-08-19T15:17:50.166Z,312.00
2022-08-19T15:18:50.146Z,276.00
2022-08-19T15:19:50.138Z,264.00
2022-08-19T15:20:50.135Z,296.00
2022-08-19T15:21:50.159Z,368.00
2022-08-19T15:22:50.103Z,400.00
2022-08-19T15:23:50.107Z,420.00
2022-08-19T15:24:50.078Z,424.00
2022-08-19T15:25:50.082Z,336.00
2022-08-19T15:26:50.053Z,324.00
2022-08-19T15:27:50.111Z,408.00
2022-08-19T15:28:50.039Z,432.00
2022-08-19T15:29:50.034Z,436.00
2022-08-19T15:30:51.045Z,424.00
2022-08-19T15:31:50.004Z,400.00
2022-08-19T15:32:49.992Z,400.00
2022-08-19T15:33:49.980Z,312.00
2022-08-19T15:34:49.972Z,380.00
2022-08-19T15:35:49.986Z,384.00
2022-08-19T15:36:49.955Z,384.00
2022-08-19T15:37:49.951Z,380.00
2022-08-19T15:38:49.932Z,376.00
2022-08-19T15:39:49.942Z,372.00
2022-08-19T15:40:49.937Z,368.00
2022-08-19T15:41:49.921Z,364.00
2022-08-19T15:42:49.945Z,360.00
2022-08-19T15:43:49.875Z,360.00
2022-08-19T15:44:49.867Z,336.00
2022-08-19T15:45:49.861Z,328.00
2022-08-19T15:46:49.866Z,304.00
2022-08-19T15:47:49.856Z,324.00
2022-08-19T15:48:56.061Z,324.00
2022-08-19T15:49:50.818Z,324.00
2022-08-19T15:50:49.818Z,320.00
2022-08-19T15:51:49.800Z,324.00
2022-08-19T15:52:50.320Z,324.00
2022-08-19T15:53:49.773Z,312.00
2022-08-19T15:54:49.756Z,284.00
2022-08-19T15:55:49.757Z,284.00
2022-08-19T15:56:57.415Z,272.00
2022-08-19T15:57:50.776Z,300.00
2022-08-19T15:58:49.714Z,248.00
2022-08-19T15:59:49.698Z,240.00
2022-08-19T16:00:52.689Z,256.00
2022-08-19T16:01:49.693Z,288.00
2022-08-19T16:02:49.702Z,272.00
2022-08-19T16:03:49.691Z,288.00
2022-08-19T16:04:49.651Z,332.00
2022-08-19T16:05:49.639Z,348.00
2022-08-19T16:06:49.625Z,340.00
2022-08-19T16:07:49.630Z,300.00
2022-08-19T16:08:49.631Z,296.00
2022-08-19T16:09:49.617Z,316.00
2022-08-19T16:10:49.589Z,296.00
2022-08-19T16:11:56.461Z,292.00
2022-08-19T16:12:49.572Z,304.00
2022-08-19T16:13:49.557Z,292.00
2022-08-19T16:14:49.564Z,284.00
2022-08-19T16:15:49.541Z,248.00
2022-08-19T16:16:49.543Z,256.00
2022-08-19T16:17:56.394Z,260.00
2022-08-19T16:18:50.502Z,256.00
2022-08-19T16:19:52.564Z,252.00
2022-08-19T16:20:49.482Z,244.00
2022-08-19T16:21:49.472Z,236.00
2022-08-19T16:22:49.459Z,228.00
2022-08-19T16:23:49.448Z,224.00
2022-08-19T16:24:49.607Z,224.00
2022-08-19T16:25:49.480Z,208.00
2022-08-19T16:26:49.428Z,196.00
2022-08-19T16:27:54.221Z,180.00
2022-08-19T16:28:50.402Z,172.00
2022-08-19T16:29:49.386Z,172.00
2022-08-19T16:30:51.151Z,180.00
2022-08-19T16:31:49.361Z,188.00
2022-08-19T16:32:49.381Z,200.00
2022-08-19T16:33:49.353Z,204.00
2022-08-19T16:34:49.335Z,212.00
2022-08-19T16:35:56.071Z,216.00
2022-08-19T16:36:50.343Z,236.00
2022-08-19T16:37:49.296Z,244.00
2022-08-19T16:38:49.337Z,260.00
2022-08-19T16:39:49.373Z,272.00
2022-08-19T16:40:49.293Z,280.00
2022-08-19T16:41:49.258Z,292.00
2022-08-19T16:42:49.284Z,296.00
2022-08-19T16:43:49.232Z,300.00
2022-08-19T16:44:49.228Z,304.00
2022-08-19T16:45:49.221Z,304.00
2022-08-19T16:46:57.280Z,304.00
2022-08-19T16:47:50.246Z,300.00
2022-08-19T16:48:49.200Z,296.00
2022-08-19T16:49:52.966Z,292.00
2022-08-19T16:50:50.162Z,288.00
2022-08-19T16:51:49.153Z,284.00
2022-08-19T16:52:49.172Z,288.00
2022-08-19T16:53:49.125Z,288.00